Cura Malal, Argentina
Current Conditions -  °F | °C
As of 7:00 PM on Saturday 20 Dec 2014 (Local Time) from SAZM Reporting Station
Clear Clear  
Wind Chill: 63°   Ceiling: Unl
Heat Index: 63°   Visibility: 6mi
Dew Point: 37°   Wind: 23mph
Humidity: 39%   Direction: 180°S
Pressure: 29.71"   Gusts: NA
Location:  37.49°S, 62.11°W
Report Text: SAZM 202200Z 18020KT CAVOK 17/03 Q1006
Loading
Personal Weather Stations






























Interactive Weather Map New forecast layout! Learn more

10-Day Weather Forecast

Advertisements
Track Severe Weather on mobile